sensor_id;sensor_type;location;lat;lon;timestamp;P1;durP1;ratioP1;P2;durP2;ratioP2
23290;SDS011;11814;44.686;10.842;2023-12-04T00:00:37;49.35;;;34.05;;
23290;SDS011;11814;44.686;10.842;2023-12-04T00:03:03;50.15;;;34.17;;
23290;SDS011;11814;44.686;10.842;2023-12-04T00:05:29;46.40;;;33.60;;
23290;SDS011;11814;44.686;10.842;2023-12-04T00:07:54;49.05;;;33.55;;
23290;SDS011;11814;44.686;10.842;2023-12-04T00:10:20;47.13;;;33.40;;
23290;SDS011;11814;44.686;10.842;2023-12-04T00:12:46;50.03;;;32.78;;
23290;SDS011;11814;44.686;10.842;2023-12-04T00:15:11;42.05;;;32.33;;
23290;SDS011;11814;44.686;10.842;2023-12-04T00:17:37;42.05;;;30.77;;
23290;SDS011;11814;44.686;10.842;2023-12-04T00:20:08;44.33;;;32.20;;
23290;SDS011;11814;44.686;10.842;2023-12-04T00:22:34;42.55;;;29.20;;
23290;SDS011;11814;44.686;10.842;2023-12-04T00:25:01;42.00;;;28.73;;
23290;SDS011;11814;44.686;10.842;2023-12-04T00:27:31;45.65;;;30.27;;
23290;SDS011;11814;44.686;10.842;2023-12-04T00:29:56;41.53;;;27.55;;
23290;SDS011;11814;44.686;10.842;2023-12-04T00:32:22;40.67;;;28.02;;
23290;SDS011;11814;44.686;10.842;2023-12-04T00:34:48;49.03;;;29.98;;
23290;SDS011;11814;44.686;10.842;2023-12-04T00:37:14;45.33;;;28.70;;
23290;SDS011;11814;44.686;10.842;2023-12-04T00:39:39;41.17;;;28.25;;
23290;SDS011;11814;44.686;10.842;2023-12-04T00:42:05;41.10;;;27.10;;
23290;SDS011;11814;44.686;10.842;2023-12-04T00:44:31;44.78;;;27.33;;
23290;SDS011;11814;44.686;10.842;2023-12-04T00:46:56;41.92;;;27.17;;
23290;SDS011;11814;44.686;10.842;2023-12-04T00:49:22;41.70;;;28.92;;
23290;SDS011;11814;44.686;10.842;2023-12-04T00:51:48;38.88;;;27.83;;
23290;SDS011;11814;44.686;10.842;2023-12-04T00:54:14;36.58;;;26.70;;
23290;SDS011;11814;44.686;10.842;2023-12-04T00:56:40;37.30;;;26.98;;
23290;SDS011;11814;44.686;10.842;2023-12-04T00:59:07;39.45;;;27.50;;
23290;SDS011;11814;44.686;10.842;2023-12-04T01:01:35;44.97;;;30.58;;
23290;SDS011;11814;44.686;10.842;2023-12-04T01:04:00;43.17;;;30.85;;
23290;SDS011;11814;44.686;10.842;2023-12-04T01:06:26;46.50;;;30.88;;
23290;SDS011;11814;44.686;10.842;2023-12-04T01:08:53;46.60;;;30.90;;
23290;SDS011;11814;44.686;10.842;2023-12-04T01:11:19;45.60;;;30.60;;
23290;SDS011;11814;44.686;10.842;2023-12-04T01:13:45;50.10;;;33.42;;
23290;SDS011;11814;44.686;10.842;2023-12-04T01:16:11;46.47;;;32.22;;
23290;SDS011;11814;44.686;10.842;2023-12-04T01:18:37;47.13;;;32.05;;
23290;SDS011;11814;44.686;10.842;2023-12-04T01:21:02;51.08;;;33.10;;
23290;SDS011;11814;44.686;10.842;2023-12-04T01:23:28;43.70;;;30.75;;
23290;SDS011;11814;44.686;10.842;2023-12-04T01:25:54;48.22;;;31.80;;
23290;SDS011;11814;44.686;10.842;2023-12-04T01:28:20;47.92;;;29.17;;
23290;SDS011;11814;44.686;10.842;2023-12-04T01:30:45;46.88;;;31.50;;
23290;SDS011;11814;44.686;10.842;2023-12-04T01:33:11;41.80;;;29.08;;
23290;SDS011;11814;44.686;10.842;2023-12-04T01:35:36;40.63;;;28.08;;
23290;SDS011;11814;44.686;10.842;2023-12-04T01:38:02;35.58;;;25.75;;
23290;SDS011;11814;44.686;10.842;2023-12-04T01:40:28;36.45;;;26.65;;
23290;SDS011;11814;44.686;10.842;2023-12-04T01:42:53;37.85;;;26.33;;
23290;SDS011;11814;44.686;10.842;2023-12-04T01:45:19;41.95;;;27.15;;
23290;SDS011;11814;44.686;10.842;2023-12-04T01:47:45;42.83;;;29.65;;
23290;SDS011;11814;44.686;10.842;2023-12-04T01:50:11;42.15;;;28.00;;
23290;SDS011;11814;44.686;10.842;2023-12-04T01:52:37;41.78;;;28.42;;
23290;SDS011;11814;44.686;10.842;2023-12-04T01:55:03;43.03;;;28.48;;
23290;SDS011;11814;44.686;10.842;2023-12-04T01:57:31;48.08;;;31.55;;
23290;SDS011;11814;44.686;10.842;2023-12-04T01:59:56;48.15;;;31.38;;
23290;SDS011;11814;44.686;10.842;2023-12-04T02:02:23;43.88;;;31.27;;
23290;SDS011;11814;44.686;10.842;2023-12-04T02:04:48;38.67;;;29.98;;
23290;SDS011;11814;44.686;10.842;2023-12-04T02:07:14;44.35;;;31.73;;
23290;SDS011;11814;44.686;10.842;2023-12-04T02:09:40;47.97;;;31.48;;
23290;SDS011;11814;44.686;10.842;2023-12-04T02:12:05;47.38;;;31.40;;
23290;SDS011;11814;44.686;10.842;2023-12-04T02:14:31;43.78;;;30.65;;
23290;SDS011;11814;44.686;10.842;2023-12-04T02:16:57;45.65;;;30.38;;
23290;SDS011;11814;44.686;10.842;2023-12-04T02:19:25;39.05;;;28.45;;
23290;SDS011;11814;44.686;10.842;2023-12-04T02:21:51;50.80;;;34.75;;
23290;SDS011;11814;44.686;10.842;2023-12-04T02:24:16;48.10;;;30.92;;
23290;SDS011;11814;44.686;10.842;2023-12-04T02:26:44;42.33;;;28.98;;
23290;SDS011;11814;44.686;10.842;2023-12-04T02:29:17;50.45;;;30.48;;
23290;SDS011;11814;44.686;10.842;2023-12-04T02:31:51;43.33;;;27.33;;
23290;SDS011;11814;44.686;10.842;2023-12-04T02:34:20;41.70;;;28.52;;
23290;SDS011;11814;44.686;10.842;2023-12-04T02:36:46;60.15;;;35.78;;
23290;SDS011;11814;44.686;10.842;2023-12-04T02:39:13;52.85;;;36.28;;
23290;SDS011;11814;44.686;10.842;2023-12-04T02:41:39;45.85;;;31.70;;
23290;SDS011;11814;44.686;10.842;2023-12-04T02:44:04;47.53;;;32.67;;
23290;SDS011;11814;44.686;10.842;2023-12-04T02:46:30;44.83;;;32.90;;
23290;SDS011;11814;44.686;10.842;2023-12-04T02:48:55;45.97;;;32.63;;
23290;SDS011;11814;44.686;10.842;2023-12-04T02:51:21;49.13;;;35.63;;
23290;SDS011;11814;44.686;10.842;2023-12-04T02:53:47;44.42;;;32.40;;
23290;SDS011;11814;44.686;10.842;2023-12-04T02:56:12;53.72;;;33.90;;
23290;SDS011;11814;44.686;10.842;2023-12-04T02:58:38;44.90;;;33.38;;
23290;SDS011;11814;44.686;10.842;2023-12-04T03:01:04;49.03;;;34.45;;
23290;SDS011;11814;44.686;10.842;2023-12-04T03:03:30;49.95;;;35.20;;
23290;SDS011;11814;44.686;10.842;2023-12-04T03:05:56;49.35;;;35.50;;
23290;SDS011;11814;44.686;10.842;2023-12-04T03:08:21;47.13;;;33.38;;
23290;SDS011;11814;44.686;10.842;2023-12-04T03:10:47;44.35;;;31.75;;
23290;SDS011;11814;44.686;10.842;2023-12-04T03:13:12;46.22;;;33.65;;
23290;SDS011;11814;44.686;10.842;2023-12-04T03:15:38;55.10;;;34.70;;
23290;SDS011;11814;44.686;10.842;2023-12-04T03:18:04;44.75;;;32.97;;
23290;SDS011;11814;44.686;10.842;2023-12-04T03:20:31;47.67;;;32.70;;
23290;SDS011;11814;44.686;10.842;2023-12-04T03:22:58;46.50;;;31.70;;
23290;SDS011;11814;44.686;10.842;2023-12-04T03:25:23;47.30;;;33.25;;
23290;SDS011;11814;44.686;10.842;2023-12-04T03:27:49;44.50;;;32.08;;
23290;SDS011;11814;44.686;10.842;2023-12-04T03:30:14;47.25;;;34.30;;
23290;SDS011;11814;44.686;10.842;2023-12-04T03:32:41;46.83;;;33.60;;
23290;SDS011;11814;44.686;10.842;2023-12-04T03:35:07;45.90;;;31.88;;
23290;SDS011;11814;44.686;10.842;2023-12-04T03:37:32;45.22;;;32.17;;
23290;SDS011;11814;44.686;10.842;2023-12-04T03:39:59;42.67;;;31.00;;
23290;SDS011;11814;44.686;10.842;2023-12-04T03:42:24;47.55;;;32.78;;
23290;SDS011;11814;44.686;10.842;2023-12-04T03:44:50;45.75;;;32.42;;
23290;SDS011;11814;44.686;10.842;2023-12-04T03:47:15;45.22;;;32.88;;
23290;SDS011;11814;44.686;10.842;2023-12-04T03:49:41;42.78;;;32.25;;
23290;SDS011;11814;44.686;10.842;2023-12-04T03:52:07;45.30;;;32.13;;
23290;SDS011;11814;44.686;10.842;2023-12-04T03:54:32;44.10;;;33.60;;
23290;SDS011;11814;44.686;10.842;2023-12-04T03:56:58;44.83;;;33.22;;
23290;SDS011;11814;44.686;10.842;2023-12-04T03:59:23;47.78;;;34.05;;
23290;SDS011;11814;44.686;10.842;2023-12-04T04:01:49;46.13;;;32.95;;
23290;SDS011;11814;44.686;10.842;2023-12-04T04:04:15;42.83;;;32.58;;
23290;SDS011;11814;44.686;10.842;2023-12-04T04:06:40;49.03;;;32.40;;
23290;SDS011;11814;44.686;10.842;2023-12-04T04:09:06;43.47;;;32.25;;
23290;SDS011;11814;44.686;10.842;2023-12-04T04:11:31;44.33;;;35.15;;
23290;SDS011;11814;44.686;10.842;2023-12-04T04:13:57;45.65;;;32.60;;
23290;SDS011;11814;44.686;10.842;2023-12-04T04:16:23;45.90;;;32.83;;
23290;SDS011;11814;44.686;10.842;2023-12-04T04:18:48;40.63;;;30.67;;
23290;SDS011;11814;44.686;10.842;2023-12-04T04:21:14;45.10;;;33.42;;
23290;SDS011;11814;44.686;10.842;2023-12-04T04:23:39;46.38;;;32.55;;
23290;SDS011;11814;44.686;10.842;2023-12-04T04:26:05;46.60;;;33.97;;
23290;SDS011;11814;44.686;10.842;2023-12-04T04:28:31;48.50;;;33.25;;
23290;SDS011;11814;44.686;10.842;2023-12-04T04:30:57;40.58;;;31.25;;
23290;SDS011;11814;44.686;10.842;2023-12-04T04:33:23;43.90;;;30.90;;
23290;SDS011;11814;44.686;10.842;2023-12-04T04:35:49;42.88;;;31.90;;
23290;SDS011;11814;44.686;10.842;2023-12-04T04:38:14;41.53;;;30.42;;
23290;SDS011;11814;44.686;10.842;2023-12-04T04:40:40;40.45;;;29.95;;
23290;SDS011;11814;44.686;10.842;2023-12-04T04:43:08;45.40;;;33.13;;
23290;SDS011;11814;44.686;10.842;2023-12-04T04:45:35;41.08;;;32.28;;
23290;SDS011;11814;44.686;10.842;2023-12-04T04:48:01;47.45;;;35.70;;
23290;SDS011;11814;44.686;10.842;2023-12-04T04:50:26;43.85;;;31.83;;
23290;SDS011;11814;44.686;10.842;2023-12-04T04:52:52;47.20;;;31.05;;
23290;SDS011;11814;44.686;10.842;2023-12-04T04:55:17;46.33;;;33.30;;
23290;SDS011;11814;44.686;10.842;2023-12-04T04:57:43;43.60;;;31.05;;
23290;SDS011;11814;44.686;10.842;2023-12-04T05:00:09;43.22;;;31.63;;
23290;SDS011;11814;44.686;10.842;2023-12-04T05:02:36;43.28;;;30.40;;
23290;SDS011;11814;44.686;10.842;2023-12-04T05:05:02;42.35;;;30.92;;
23290;SDS011;11814;44.686;10.842;2023-12-04T05:07:29;42.58;;;31.70;;
23290;SDS011;11814;44.686;10.842;2023-12-04T05:09:55;41.85;;;29.67;;
23290;SDS011;11814;44.686;10.842;2023-12-04T05:12:20;46.33;;;31.02;;
23290;SDS011;11814;44.686;10.842;2023-12-04T05:14:46;40.70;;;29.92;;
23290;SDS011;11814;44.686;10.842;2023-12-04T05:17:12;40.50;;;28.85;;
23290;SDS011;11814;44.686;10.842;2023-12-04T05:19:37;41.83;;;29.83;;
23290;SDS011;11814;44.686;10.842;2023-12-04T05:22:03;38.55;;;28.05;;
23290;SDS011;11814;44.686;10.842;2023-12-04T05:24:28;39.42;;;28.55;;
23290;SDS011;11814;44.686;10.842;2023-12-04T05:26:54;39.75;;;28.35;;
23290;SDS011;11814;44.686;10.842;2023-12-04T05:29:20;41.55;;;30.02;;
23290;SDS011;11814;44.686;10.842;2023-12-04T05:31:46;39.88;;;28.70;;
23290;SDS011;11814;44.686;10.842;2023-12-04T05:34:12;38.03;;;27.10;;
23290;SDS011;11814;44.686;10.842;2023-12-04T05:36:37;39.22;;;28.50;;
23290;SDS011;11814;44.686;10.842;2023-12-04T05:39:03;39.38;;;26.58;;
23290;SDS011;11814;44.686;10.842;2023-12-04T05:41:29;41.35;;;28.65;;
23290;SDS011;11814;44.686;10.842;2023-12-04T05:43:55;38.45;;;27.65;;
23290;SDS011;11814;44.686;10.842;2023-12-04T05:46:21;41.75;;;28.27;;
23290;SDS011;11814;44.686;10.842;2023-12-04T05:48:47;36.40;;;26.88;;
23290;SDS011;11814;44.686;10.842;2023-12-04T05:51:13;43.05;;;30.00;;
23290;SDS011;11814;44.686;10.842;2023-12-04T05:53:40;39.42;;;29.58;;
23290;SDS011;11814;44.686;10.842;2023-12-04T05:56:06;41.38;;;30.98;;
23290;SDS011;11814;44.686;10.842;2023-12-04T05:58:33;43.42;;;30.33;;
23290;SDS011;11814;44.686;10.842;2023-12-04T06:00:58;50.10;;;33.42;;
23290;SDS011;11814;44.686;10.842;2023-12-04T06:03:24;46.58;;;33.63;;
23290;SDS011;11814;44.686;10.842;2023-12-04T06:05:50;44.28;;;32.08;;
23290;SDS011;11814;44.686;10.842;2023-12-04T06:08:16;45.25;;;33.00;;
23290;SDS011;11814;44.686;10.842;2023-12-04T06:10:41;45.63;;;34.33;;
23290;SDS011;11814;44.686;10.842;2023-12-04T06:13:07;59.22;;;38.28;;
23290;SDS011;11814;44.686;10.842;2023-12-04T06:15:33;49.53;;;36.38;;
23290;SDS011;11814;44.686;10.842;2023-12-04T06:17:58;52.08;;;37.65;;
23290;SDS011;11814;44.686;10.842;2023-12-04T06:20:24;53.25;;;35.33;;
23290;SDS011;11814;44.686;10.842;2023-12-04T06:22:49;51.05;;;33.88;;
23290;SDS011;11814;44.686;10.842;2023-12-04T06:25:15;47.47;;;33.05;;
23290;SDS011;11814;44.686;10.842;2023-12-04T06:27:41;51.58;;;35.45;;
23290;SDS011;11814;44.686;10.842;2023-12-04T06:30:07;46.17;;;30.95;;
23290;SDS011;11814;44.686;10.842;2023-12-04T06:32:33;52.45;;;33.55;;
23290;SDS011;11814;44.686;10.842;2023-12-04T06:34:59;45.40;;;30.88;;
23290;SDS011;11814;44.686;10.842;2023-12-04T06:37:25;48.95;;;31.95;;
23290;SDS011;11814;44.686;10.842;2023-12-04T06:39:52;47.55;;;31.10;;
23290;SDS011;11814;44.686;10.842;2023-12-04T06:42:18;42.83;;;29.25;;
23290;SDS011;11814;44.686;10.842;2023-12-04T06:44:44;41.58;;;29.23;;
23290;SDS011;11814;44.686;10.842;2023-12-04T06:47:12;49.63;;;32.33;;
23290;SDS011;11814;44.686;10.842;2023-12-04T06:49:42;46.80;;;30.98;;
23290;SDS011;11814;44.686;10.842;2023-12-04T06:52:08;43.47;;;31.15;;
23290;SDS011;11814;44.686;10.842;2023-12-04T06:54:33;47.40;;;30.88;;
23290;SDS011;11814;44.686;10.842;2023-12-04T06:56:59;47.78;;;31.02;;
23290;SDS011;11814;44.686;10.842;2023-12-04T06:59:24;46.50;;;29.40;;
23290;SDS011;11814;44.686;10.842;2023-12-04T07:01:50;46.90;;;32.47;;
23290;SDS011;11814;44.686;10.842;2023-12-04T07:04:16;39.47;;;29.10;;
23290;SDS011;11814;44.686;10.842;2023-12-04T07:06:45;42.78;;;30.02;;
23290;SDS011;11814;44.686;10.842;2023-12-04T07:09:11;44.22;;;29.00;;
23290;SDS011;11814;44.686;10.842;2023-12-04T07:11:37;49.08;;;29.50;;
23290;SDS011;11814;44.686;10.842;2023-12-04T07:14:03;47.78;;;30.13;;
23290;SDS011;11814;44.686;10.842;2023-12-04T07:16:28;43.38;;;28.38;;
23290;SDS011;11814;44.686;10.842;2023-12-04T07:18:54;48.63;;;31.15;;
23290;SDS011;11814;44.686;10.842;2023-12-04T07:21:20;47.33;;;30.70;;
23290;SDS011;11814;44.686;10.842;2023-12-04T07:23:46;41.15;;;27.52;;
23290;SDS011;11814;44.686;10.842;2023-12-04T07:26:12;43.35;;;30.05;;
23290;SDS011;11814;44.686;10.842;2023-12-04T07:28:38;43.47;;;29.58;;
23290;SDS011;11814;44.686;10.842;2023-12-04T07:31:03;45.47;;;29.90;;
23290;SDS011;11814;44.686;10.842;2023-12-04T07:33:29;45.08;;;28.55;;
23290;SDS011;11814;44.686;10.842;2023-12-04T07:35:55;44.22;;;27.42;;
23290;SDS011;11814;44.686;10.842;2023-12-04T07:38:21;45.75;;;26.27;;
23290;SDS011;11814;44.686;10.842;2023-12-04T07:40:47;44.78;;;26.27;;
23290;SDS011;11814;44.686;10.842;2023-12-04T07:43:12;42.28;;;27.50;;
23290;SDS011;11814;44.686;10.842;2023-12-04T07:45:41;40.00;;;24.85;;
23290;SDS011;11814;44.686;10.842;2023-12-04T07:48:07;36.40;;;26.05;;
23290;SDS011;11814;44.686;10.842;2023-12-04T07:50:33;43.00;;;27.27;;
23290;SDS011;11814;44.686;10.842;2023-12-04T07:52:59;43.78;;;29.17;;
23290;SDS011;11814;44.686;10.842;2023-12-04T07:55:25;49.50;;;30.30;;
23290;SDS011;11814;44.686;10.842;2023-12-04T07:57:50;43.63;;;29.88;;
23290;SDS011;11814;44.686;10.842;2023-12-04T08:00:16;43.50;;;32.10;;
23290;SDS011;11814;44.686;10.842;2023-12-04T08:02:47;44.15;;;29.95;;
23290;SDS011;11814;44.686;10.842;2023-12-04T08:05:13;43.83;;;29.60;;
23290;SDS011;11814;44.686;10.842;2023-12-04T08:07:39;45.75;;;30.77;;
23290;SDS011;11814;44.686;10.842;2023-12-04T08:10:05;42.15;;;28.92;;
23290;SDS011;11814;44.686;10.842;2023-12-04T08:12:31;46.42;;;29.17;;
23290;SDS011;11814;44.686;10.842;2023-12-04T08:14:58;46.17;;;30.25;;
23290;SDS011;11814;44.686;10.842;2023-12-04T08:17:24;42.17;;;29.85;;
23290;SDS011;11814;44.686;10.842;2023-12-04T08:19:50;44.90;;;29.55;;
23290;SDS011;11814;44.686;10.842;2023-12-04T08:22:16;38.67;;;27.02;;
23290;SDS011;11814;44.686;10.842;2023-12-04T08:24:41;41.20;;;26.85;;
23290;SDS011;11814;44.686;10.842;2023-12-04T08:27:07;43.90;;;28.27;;
23290;SDS011;11814;44.686;10.842;2023-12-04T08:29:33;47.05;;;29.90;;
23290;SDS011;11814;44.686;10.842;2023-12-04T08:31:59;42.17;;;28.20;;
23290;SDS011;11814;44.686;10.842;2023-12-04T08:34:25;43.33;;;26.75;;
23290;SDS011;11814;44.686;10.842;2023-12-04T08:36:51;43.05;;;29.30;;
23290;SDS011;11814;44.686;10.842;2023-12-04T08:39:16;51.08;;;33.50;;
23290;SDS011;11814;44.686;10.842;2023-12-04T08:41:44;43.85;;;30.77;;
23290;SDS011;11814;44.686;10.842;2023-12-04T08:44:12;41.50;;;27.40;;
23290;SDS011;11814;44.686;10.842;2023-12-04T08:46:38;42.42;;;26.67;;
23290;SDS011;11814;44.686;10.842;2023-12-04T08:49:03;36.67;;;26.27;;
23290;SDS011;11814;44.686;10.842;2023-12-04T08:51:29;37.22;;;24.98;;
23290;SDS011;11814;44.686;10.842;2023-12-04T08:53:55;36.47;;;24.13;;
23290;SDS011;11814;44.686;10.842;2023-12-04T08:56:22;35.65;;;23.35;;
23290;SDS011;11814;44.686;10.842;2023-12-04T08:58:48;32.33;;;22.85;;
23290;SDS011;11814;44.686;10.842;2023-12-04T09:01:15;31.88;;;23.33;;
23290;SDS011;11814;44.686;10.842;2023-12-04T09:03:41;33.35;;;23.50;;
23290;SDS011;11814;44.686;10.842;2023-12-04T09:06:07;35.50;;;25.42;;
23290;SDS011;11814;44.686;10.842;2023-12-04T09:08:32;34.25;;;24.08;;
23290;SDS011;11814;44.686;10.842;2023-12-04T09:10:59;36.53;;;26.88;;
23290;SDS011;11814;44.686;10.842;2023-12-04T09:13:25;41.22;;;27.58;;
23290;SDS011;11814;44.686;10.842;2023-12-04T09:15:51;39.17;;;26.15;;
23290;SDS011;11814;44.686;10.842;2023-12-04T09:18:16;38.08;;;26.98;;
23290;SDS011;11814;44.686;10.842;2023-12-04T09:20:42;39.95;;;24.98;;
23290;SDS011;11814;44.686;10.842;2023-12-04T09:23:08;40.28;;;26.25;;
23290;SDS011;11814;44.686;10.842;2023-12-04T09:25:34;35.45;;;26.38;;
23290;SDS011;11814;44.686;10.842;2023-12-04T09:28:00;37.55;;;24.85;;
23290;SDS011;11814;44.686;10.842;2023-12-04T09:30:26;38.63;;;27.25;;
23290;SDS011;11814;44.686;10.842;2023-12-04T09:32:52;40.47;;;23.92;;
23290;SDS011;11814;44.686;10.842;2023-12-04T09:35:17;38.13;;;25.48;;
23290;SDS011;11814;44.686;10.842;2023-12-04T09:37:44;43.20;;;25.95;;
23290;SDS011;11814;44.686;10.842;2023-12-04T09:40:10;40.25;;;25.20;;
23290;SDS011;11814;44.686;10.842;2023-12-04T09:42:37;33.25;;;24.40;;
23290;SDS011;11814;44.686;10.842;2023-12-04T09:45:04;35.67;;;22.90;;
23290;SDS011;11814;44.686;10.842;2023-12-04T09:47:32;29.23;;;21.73;;
23290;SDS011;11814;44.686;10.842;2023-12-04T09:49:59;29.73;;;20.40;;
23290;SDS011;11814;44.686;10.842;2023-12-04T09:52:28;32.60;;;22.30;;
23290;SDS011;11814;44.686;10.842;2023-12-04T09:54:55;34.13;;;20.42;;
23290;SDS011;11814;44.686;10.842;2023-12-04T09:57:21;27.67;;;19.20;;
23290;SDS011;11814;44.686;10.842;2023-12-04T09:59:49;30.90;;;20.63;;
23290;SDS011;11814;44.686;10.842;2023-12-04T10:02:17;36.47;;;24.92;;
23290;SDS011;11814;44.686;10.842;2023-12-04T10:04:43;43.58;;;29.55;;
23290;SDS011;11814;44.686;10.842;2023-12-04T10:07:10;40.80;;;29.75;;
23290;SDS011;11814;44.686;10.842;2023-12-04T10:09:35;40.08;;;27.90;;
23290;SDS011;11814;44.686;10.842;2023-12-04T10:12:01;37.92;;;27.23;;
23290;SDS011;11814;44.686;10.842;2023-12-04T10:14:27;36.15;;;27.02;;
23290;SDS011;11814;44.686;10.842;2023-12-04T10:16:53;35.17;;;25.15;;
23290;SDS011;11814;44.686;10.842;2023-12-04T10:19:22;34.22;;;24.58;;
23290;SDS011;11814;44.686;10.842;2023-12-04T10:21:55;32.38;;;23.48;;
23290;SDS011;11814;44.686;10.842;2023-12-04T10:27:00;30.85;;;21.95;;
23290;SDS011;11814;44.686;10.842;2023-12-04T10:29:47;30.67;;;22.25;;
23290;SDS011;11814;44.686;10.842;2023-12-04T10:32:20;32.17;;;21.55;;
23290;SDS011;11814;44.686;10.842;2023-12-04T10:34:49;27.27;;;19.20;;
23290;SDS011;11814;44.686;10.842;2023-12-04T10:37:15;26.77;;;18.67;;
23290;SDS011;11814;44.686;10.842;2023-12-04T10:39:48;29.58;;;19.20;;
23290;SDS011;11814;44.686;10.842;2023-12-04T10:42:24;29.42;;;19.98;;
23290;SDS011;11814;44.686;10.842;2023-12-04T10:44:51;29.05;;;18.55;;
23290;SDS011;11814;44.686;10.842;2023-12-04T10:47:19;27.83;;;19.10;;
23290;SDS011;11814;44.686;10.842;2023-12-04T10:49:48;34.47;;;19.30;;
23290;SDS011;11814;44.686;10.842;2023-12-04T10:52:15;28.17;;;19.58;;
23290;SDS011;11814;44.686;10.842;2023-12-04T10:54:45;28.55;;;18.88;;
23290;SDS011;11814;44.686;10.842;2023-12-04T10:57:11;27.92;;;18.80;;
23290;SDS011;11814;44.686;10.842;2023-12-04T10:59:41;29.10;;;19.92;;
23290;SDS011;11814;44.686;10.842;2023-12-04T11:02:08;28.80;;;18.58;;
23290;SDS011;11814;44.686;10.842;2023-12-04T11:04:38;29.50;;;18.70;;
23290;SDS011;11814;44.686;10.842;2023-12-04T11:07:06;26.70;;;19.10;;
23290;SDS011;11814;44.686;10.842;2023-12-04T11:09:34;27.05;;;19.00;;
23290;SDS011;11814;44.686;10.842;2023-12-04T11:12:02;28.02;;;18.63;;
23290;SDS011;11814;44.686;10.842;2023-12-04T11:14:34;24.45;;;18.17;;
23290;SDS011;11814;44.686;10.842;2023-12-04T11:17:04;27.00;;;17.98;;
23290;SDS011;11814;44.686;10.842;2023-12-04T11:19:34;28.73;;;19.35;;
23290;SDS011;11814;44.686;10.842;2023-12-04T11:22:06;25.83;;;18.95;;
23290;SDS011;11814;44.686;10.842;2023-12-04T11:24:35;25.75;;;17.98;;
23290;SDS011;11814;44.686;10.842;2023-12-04T11:27:01;22.23;;;16.58;;
23290;SDS011;11814;44.686;10.842;2023-12-04T11:29:28;24.30;;;17.52;;
23290;SDS011;11814;44.686;10.842;2023-12-04T11:31:54;24.13;;;16.85;;
23290;SDS011;11814;44.686;10.842;2023-12-04T11:34:20;27.67;;;16.50;;
23290;SDS011;11814;44.686;10.842;2023-12-04T11:36:46;26.23;;;16.80;;
23290;SDS011;11814;44.686;10.842;2023-12-04T11:39:12;23.80;;;16.15;;
23290;SDS011;11814;44.686;10.842;2023-12-04T11:41:40;23.77;;;16.75;;
23290;SDS011;11814;44.686;10.842;2023-12-04T11:44:11;25.05;;;16.83;;
23290;SDS011;11814;44.686;10.842;2023-12-04T11:46:56;27.90;;;18.75;;
23290;SDS011;11814;44.686;10.842;2023-12-04T11:49:30;25.95;;;17.67;;
23290;SDS011;11814;44.686;10.842;2023-12-04T11:51:57;25.92;;;17.25;;
23290;SDS011;11814;44.686;10.842;2023-12-04T11:54:23;26.55;;;17.80;;
23290;SDS011;11814;44.686;10.842;2023-12-04T11:59:39;26.52;;;18.38;;
23290;SDS011;11814;44.686;10.842;2023-12-04T12:02:07;23.70;;;17.73;;
23290;SDS011;11814;44.686;10.842;2023-12-04T12:04:33;24.10;;;17.90;;
23290;SDS011;11814;44.686;10.842;2023-12-04T12:07:00;27.33;;;18.70;;
23290;SDS011;11814;44.686;10.842;2023-12-04T12:09:27;24.70;;;18.27;;
23290;SDS011;11814;44.686;10.842;2023-12-04T12:11:54;27.13;;;18.50;;
23290;SDS011;11814;44.686;10.842;2023-12-04T12:14:21;26.45;;;19.33;;
23290;SDS011;11814;44.686;10.842;2023-12-04T12:16:47;27.75;;;18.77;;
23290;SDS011;11814;44.686;10.842;2023-12-04T12:19:12;26.35;;;18.95;;
23290;SDS011;11814;44.686;10.842;2023-12-04T12:21:38;30.65;;;20.13;;
23290;SDS011;11814;44.686;10.842;2023-12-04T12:24:05;27.20;;;20.00;;
23290;SDS011;11814;44.686;10.842;2023-12-04T12:26:32;32.92;;;21.17;;
23290;SDS011;11814;44.686;10.842;2023-12-04T12:28:58;29.77;;;20.85;;
23290;SDS011;11814;44.686;10.842;2023-12-04T12:31:23;40.88;;;27.55;;
23290;SDS011;11814;44.686;10.842;2023-12-04T12:33:49;33.70;;;22.52;;
23290;SDS011;11814;44.686;10.842;2023-12-04T12:36:15;29.73;;;20.10;;
23290;SDS011;11814;44.686;10.842;2023-12-04T12:38:43;29.48;;;21.02;;
23290;SDS011;11814;44.686;10.842;2023-12-04T12:41:15;31.80;;;20.88;;
23290;SDS011;11814;44.686;10.842;2023-12-04T12:43:42;26.70;;;19.05;;
23290;SDS011;11814;44.686;10.842;2023-12-04T12:46:08;26.25;;;18.25;;
23290;SDS011;11814;44.686;10.842;2023-12-04T12:48:35;28.95;;;18.63;;
23290;SDS011;11814;44.686;10.842;2023-12-04T12:51:04;28.10;;;18.67;;
23290;SDS011;11814;44.686;10.842;2023-12-04T12:53:34;35.65;;;19.55;;
23290;SDS011;11814;44.686;10.842;2023-12-04T12:56:00;24.52;;;17.73;;
23290;SDS011;11814;44.686;10.842;2023-12-04T12:58:26;25.38;;;18.80;;
23290;SDS011;11814;44.686;10.842;2023-12-04T13:00:52;22.20;;;17.17;;
23290;SDS011;11814;44.686;10.842;2023-12-04T13:03:18;25.90;;;17.92;;
23290;SDS011;11814;44.686;10.842;2023-12-04T13:05:45;26.98;;;18.35;;
23290;SDS011;11814;44.686;10.842;2023-12-04T13:08:11;27.95;;;18.83;;
23290;SDS011;11814;44.686;10.842;2023-12-04T13:10:37;24.65;;;18.05;;
23290;SDS011;11814;44.686;10.842;2023-12-04T13:13:03;26.42;;;19.42;;
23290;SDS011;11814;44.686;10.842;2023-12-04T13:15:29;23.98;;;17.67;;
23290;SDS011;11814;44.686;10.842;2023-12-04T13:17:55;24.83;;;18.23;;
23290;SDS011;11814;44.686;10.842;2023-12-04T13:20:21;29.10;;;18.45;;
23290;SDS011;11814;44.686;10.842;2023-12-04T13:22:48;26.35;;;19.48;;
23290;SDS011;11814;44.686;10.842;2023-12-04T13:25:14;28.35;;;19.48;;
23290;SDS011;11814;44.686;10.842;2023-12-04T13:27:39;27.95;;;19.30;;
23290;SDS011;11814;44.686;10.842;2023-12-04T13:30:06;26.60;;;19.95;;
23290;SDS011;11814;44.686;10.842;2023-12-04T13:32:36;22.58;;;18.60;;
23290;SDS011;11814;44.686;10.842;2023-12-04T13:35:05;27.83;;;19.67;;
23290;SDS011;11814;44.686;10.842;2023-12-04T13:37:34;24.50;;;18.52;;
23290;SDS011;11814;44.686;10.842;2023-12-04T13:40:02;26.25;;;18.52;;
23290;SDS011;11814;44.686;10.842;2023-12-04T13:42:40;22.58;;;17.42;;
23290;SDS011;11814;44.686;10.842;2023-12-04T13:45:25;26.45;;;18.17;;
23290;SDS011;11814;44.686;10.842;2023-12-04T13:47:51;23.48;;;18.00;;
23290;SDS011;11814;44.686;10.842;2023-12-04T13:50:18;27.13;;;19.77;;
23290;SDS011;11814;44.686;10.842;2023-12-04T13:52:43;26.48;;;18.98;;
23290;SDS011;11814;44.686;10.842;2023-12-04T13:55:09;24.73;;;19.00;;
23290;SDS011;11814;44.686;10.842;2023-12-04T13:57:46;27.35;;;19.08;;
23290;SDS011;11814;44.686;10.842;2023-12-04T14:00:23;26.38;;;19.83;;
23290;SDS011;11814;44.686;10.842;2023-12-04T14:02:50;28.88;;;20.00;;
23290;SDS011;11814;44.686;10.842;2023-12-04T14:05:25;26.05;;;18.60;;
23290;SDS011;11814;44.686;10.842;2023-12-04T14:07:50;29.27;;;20.75;;
23290;SDS011;11814;44.686;10.842;2023-12-04T14:10:16;28.73;;;20.45;;